Terminal Aerodrome Forecast
Issued by NWS Upton, NY

Home | Current Version | Previous Version | Text Only | Print | Product List | Glossary On
Versions: 1 2 3 4 5 6 7 8 9 10 11 12 13 14 15 16 17 18 19 20 21 22 23 24 25 26
000
FTUS41 KOKX 031136
TAFJFK
TAF
KJFK 031136Z 0312/0418 35006KT P6SM SKC
     FM031700 17008KT P6SM SCT250
     FM032300 15007KT P6SM BKN250
     FM040200 VRB04KT P6SM BKN250
     FM041200 05010KT P6SM BKN035=

USA.gov is the U.S. government's official web portal to all federal, state and local government web resources and services.